ソウル/仁川 の空港の天気 - METARとTAF

仁川国際空港 ( RKSI / ICN ) - 大韓民国 仁川広域市 (ソウル特別市近郊)
飛行場実況気象(Metar)
観測時間03/30 19:00 KST (03/30 10:00 UTC)
風向・風速西 4m/s
視程10km以上
天気現象
なし
気温8℃
湿度71%
気圧1020hPa
METARRKSI 301000Z 28008KT CAVOK 08/03 Q1020 NOSIG
過去の天気等 Google飛行場航空写真 Wunderground天気予報

過去48時間のMETAR

飛行場予報(TAF)
発表時間: 3/30 14:00 KST (3/30 05:00 UTC)
予報対象時間: 30日15時 KST ~ 31日21時 KST
風向・風速西 4m/s
視程10km以上
なし
30日22時 KST ~ 30日23時 KST に徐々に
風向・風速北北西 5m/s
視程6,000m
なし
31日2時 KST ~ 31日3時 KST に徐々に
風向・風速北東 4m/s
少しの雲 雲底高度 300m
全天の4割程度の雲 雲底高度 910m
全天の8割程度の雲 雲底高度 3,660m
31日13時 KST ~ 31日19時 KST に一時的に
風向・風速北西 5m/s
TAF RKSI 300500Z 3006/3112 28007KT CAVOK TN06/3022Z TX13/3104Z
BECMG 3013/3014 34010KT 6000 NSC
BECMG 3017/3018 05007KT FEW010 SCT030 BKN120
TEMPO 3104/3110 31010KT